Time;durP1;ratioP1;P1;durP2;ratioP2;P2;SDS_P1;SDS_P2;PMS_P1;PMS_P2;Temp;Humidity;BMP_temperature;BMP_pressure;BME280_temperature;BME280_humidity;BME280_pressure;Samples;Min_cycle;Max_cycle;Signal;HPM_P1;HPM_P2
2022/04/07 00:00:40;;;;;;;3.40;0.88;;;;;;;21.33;29.29;101981.84;4952375;29;20083;-71
2022/04/07 00:03:09;;;;;;;4.72;1.35;;;;;;;21.34;28.68;101977.47;4951907;29;20465;-71
2022/04/07 00:05:37;;;;;;;4.05;2.28;;;;;;;21.39;30.46;101982.75;4951496;29;20711;-72
2022/04/07 00:08:06;;;;;;;2.58;1.10;;;;;;;21.44;28.42;101975.75;4951617;29;20106;-70
2022/04/07 00:10:35;;;;;;;2.65;0.70;;;;;;;21.50;29.26;101975.81;4950691;28;20098;-70
2022/04/07 00:13:05;;;;;;;4.03;1.05;;;;;;;21.41;28.36;101976.63;4951628;29;20130;-70
2022/04/07 00:15:34;;;;;;;4.18;1.10;;;;;;;21.28;28.01;101974.78;4952047;29;20113;-69
2022/04/07 00:18:02;;;;;;;2.72;1.00;;;;;;;21.24;29.18;101975.66;4951638;29;20142;-69
2022/04/07 00:20:31;;;;;;;4.70;1.38;;;;;;;21.21;28.53;101973.91;4953349;29;20462;-71
2022/04/07 00:22:59;;;;;;;2.80;1.10;;;;;;;21.16;30.40;101969.47;4954705;29;20058;-69
2022/04/07 00:25:28;;;;;;;2.50;1.30;;;;;;;21.12;30.09;101972.09;4951785;29;20047;-69
2022/04/07 00:27:56;;;;;;;4.07;1.13;;;;;;;21.07;29.72;101976.47;4951875;28;20114;-69
2022/04/07 00:30:26;;;;;;;3.92;1.25;;;;;;;21.06;29.35;101969.44;4951230;29;20473;-71
2022/04/07 00:32:55;;;;;;;1.95;1.13;;;;;;;21.08;29.75;101972.94;4951619;29;20118;-70
2022/04/07 00:35:25;;;;;;;2.58;1.00;;;;;;;21.13;29.28;101958.06;4951399;29;20082;-69
2022/04/07 00:37:53;;;;;;;2.60;1.08;;;;;;;21.11;29.53;101957.16;4951176;28;20054;-71
2022/04/07 00:40:22;;;;;;;3.83;1.10;;;;;;;21.15;28.95;101950.19;4951788;29;20125;-70
2022/04/07 00:42:52;;;;;;;4.18;0.93;;;;;;;21.19;28.64;101945.78;4950811;29;20043;-69
2022/04/07 00:45:22;;;;;;;2.90;1.13;;;;;;;21.16;28.49;101946.66;4951928;29;20082;-70
2022/04/07 00:47:53;;;;;;;3.47;0.90;;;;;;;21.11;29.33;101941.38;4950635;29;20504;-70
2022/04/07 00:50:22;;;;;;;4.03;1.10;;;;;;;21.08;29.60;101933.47;4951131;29;20055;-71
2022/04/07 00:52:53;;;;;;;4.43;1.10;;;;;;;21.02;29.83;101940.47;4951266;29;20055;-70
2022/04/07 00:55:22;;;;;;;2.70;1.08;;;;;;;20.89;29.48;101928.97;4951043;29;20520;-71
2022/04/07 00:57:51;;;;;;;3.63;1.05;;;;;;;20.79;30.76;101927.19;4951522;29;20529;-73
2022/04/07 01:00:20;;;;;;;2.63;1.10;;;;;;;20.69;30.48;101931.50;4951102;29;20058;-71
2022/04/07 01:02:49;;;;;;;3.20;1.10;;;;;;;20.57;31.38;101932.31;4950693;29;20089;-71
2022/04/07 01:05:23;;;;;;;3.13;0.90;;;;;;;20.48;31.43;101926.97;4950743;29;20584;-71
2022/04/07 01:07:51;;;;;;;2.90;1.13;;;;;;;20.43;30.91;101915.50;4950844;29;20058;-70
2022/04/07 01:10:22;;;;;;;5.05;1.02;;;;;;;20.33;30.04;101926.84;4951066;29;20047;-71
2022/04/07 01:12:50;;;;;;;3.08;1.05;;;;;;;20.26;30.97;101921.50;4952074;29;20047;-69
2022/04/07 01:15:19;;;;;;;4.18;1.30;;;;;;;20.24;29.28;101918.00;4952718;29;20110;-69
2022/04/07 01:17:47;;;;;;;1.92;1.00;;;;;;;20.16;30.13;101919.69;4951320;29;20605;-69
2022/04/07 01:20:16;;;;;;;4.85;1.30;;;;;;;20.11;30.68;101917.88;4950180;29;20059;-71
2022/04/07 01:22:48;;;;;;;3.78;0.95;;;;;;;20.05;30.81;101910.84;4950292;28;20098;-70
2022/04/07 01:25:17;;;;;;;;;;;;;;;20.02;30.49;101918.66;4950705;29;20106;-69
2022/04/07 01:27:49;;;;;;;9.68;1.80;;;;;;;19.99;31.97;101921.28;4951057;28;19966;-69
2022/04/07 01:30:18;;;;;;;2.88;1.30;;;;;;;19.89;31.30;101917.69;4950119;29;20047;-69
2022/04/07 01:32:49;;;;;;;6.90;1.60;;;;;;;19.83;31.87;101921.13;4950375;29;20058;-68
2022/04/07 01:35:20;;;;;;;3.75;1.70;;;;;;;19.75;32.21;101917.56;4950774;29;20076;-70
2022/04/07 01:37:50;;;;;;;3.83;1.85;;;;;;;19.70;32.08;101915.75;4949994;28;20046;-71
2022/04/07 01:40:25;;;;;;;5.78;1.77;;;;;;;19.59;32.65;101907.75;4950782;29;20091;-70
2022/04/07 01:42:54;;;;;;;4.13;1.70;;;;;;;19.52;32.84;101898.03;4950203;29;20121;-69
2022/04/07 01:45:23;;;;;;;3.85;1.52;;;;;;;19.45;33.12;101908.47;4950200;29;20432;-69
2022/04/07 01:47:54;;;;;;;3.67;1.52;;;;;;;19.40;32.47;101902.28;4950483;29;20110;-73
2022/04/07 01:50:26;;;;;;;6.10;1.45;;;;;;;19.37;32.26;101911.84;4950074;29;20114;-71
2022/04/07 01:52:55;;;;;;;4.53;1.30;;;;;;;19.33;32.56;101905.69;4950559;29;20047;-71
2022/04/07 01:55:26;;;;;;;3.05;1.30;;;;;;;19.29;32.31;101896.03;4964134;28;20046;-70
2022/04/07 01:57:55;;;;;;;4.47;1.90;;;;;;;19.22;32.60;101894.19;4969343;28;20053;-69
2022/04/07 02:00:24;;;;;;;4.38;1.88;;;;;;;19.18;33.45;101893.28;4969579;28;20053;-69
2022/04/07 02:02:55;;;;;;;3.58;1.20;;;;;;;19.14;33.97;101888.84;4969170;28;20584;-70
2022/04/07 02:05:24;;;;;;;3.80;1.25;;;;;;;19.09;32.79;101887.03;4970714;28;20101;-71
2022/04/07 02:07:53;;;;;;;2.97;1.30;;;;;;;19.03;32.78;101888.72;4932616;29;20087;-71
2022/04/07 02:10:23;;;;;;;3.28;1.02;;;;;;;18.97;33.41;101893.00;4931359;29;20481;-71
2022/04/07 02:12:53;;;;;;;2.75;1.20;;;;;;;18.90;33.51;101883.28;4937213;29;20456;-71
2022/04/07 02:15:21;;;;;;;3.83;1.10;;;;;;;18.80;33.02;101890.16;4930899;29;20130;-69
2022/04/07 02:17:49;;;;;;;5.13;1.10;;;;;;;18.70;33.07;101878.63;4931087;29;20094;-69
2022/04/07 02:20:18;;;;;;;6.03;1.33;;;;;;;18.55;33.23;101876.66;4929596;29;20139;-69
2022/04/07 02:22:46;;;;;;;4.80;1.20;;;;;;;18.52;32.93;101881.84;4945099;28;20125;-69
2022/04/07 02:25:15;;;;;;;2.80;1.00;;;;;;;18.44;33.03;101878.25;4961947;28;20055;-68
2022/04/07 02:27:45;;;;;;;3.45;1.10;;;;;;;18.33;32.82;101878.09;4949381;28;20136;-68
2022/04/07 02:30:16;;;;;;;3.05;0.98;;;;;;;18.19;33.46;101872.63;4950146;29;20058;-69
2022/04/07 02:32:45;;;;;;;4.75;1.10;;;;;;;18.12;33.22;101873.41;4950008;29;20039;-69
2022/04/07 02:35:14;;;;;;;3.22;0.82;;;;;;;18.02;33.74;101876.69;4951647;28;20050;-69
2022/04/07 02:37:44;;;;;;;2.25;1.10;;;;;;;17.89;33.38;101865.16;4953315;28;20535;-68
2022/04/07 02:40:13;;;;;;;2.60;1.13;;;;;;;17.78;33.61;101870.16;4953994;29;20084;-68
2022/04/07 02:42:42;;;;;;;2.75;0.90;;;;;;;17.67;33.45;101858.63;4953211;29;20047;-67
2022/04/07 02:45:11;;;;;;;2.15;0.95;;;;;;;17.57;33.38;101856.72;4953550;29;20055;-69
2022/04/07 02:47:41;;;;;;;3.03;0.82;;;;;;;17.46;33.69;101868.72;4953165;29;20169;-70
2022/04/07 02:50:10;;;;;;;2.85;0.93;;;;;;;17.36;33.88;101868.53;4954034;29;20059;-69
2022/04/07 02:52:39;;;;;;;3.92;1.15;;;;;;;17.29;33.35;101866.63;4953477;29;20575;-68
2022/04/07 02:55:08;;;;;;;7.13;1.20;;;;;;;17.21;33.52;101865.59;4952991;29;20113;-68
2022/04/07 02:57:37;;;;;;;3.58;0.98;;;;;;;17.12;33.85;101876.75;4953375;29;20086;-68
2022/04/07 03:00:07;;;;;;;3.80;0.77;;;;;;;17.05;34.22;101868.78;4956573;29;20114;-68
2022/04/07 03:02:35;;;;;;;2.83;1.05;;;;;;;17.00;33.73;101865.19;4953476;29;20050;-69
2022/04/07 03:05:06;;;;;;;2.85;0.90;;;;;;;16.92;34.32;101857.16;4952214;29;20130;-70
2022/04/07 03:07:36;;;;;;;7.35;0.90;;;;;;;16.86;34.94;101859.63;4953137;29;20062;-70
2022/04/07 03:10:05;;;;;;;2.65;0.95;;;;;;;16.79;34.33;101857.72;4953240;29;20123;-69
2022/04/07 03:12:33;;;;;;;7.13;1.48;;;;;;;16.73;33.80;101867.19;4953054;29;20051;-68
2022/04/07 03:15:02;;;;;;;4.93;1.05;;;;;;;16.68;34.58;101868.81;4952341;29;20047;-69
2022/04/07 03:17:31;;;;;;;4.78;1.52;;;;;;;16.62;34.08;101865.19;4953292;29;20473;-67
2022/04/07 03:20:00;;;;;;;4.13;1.02;;;;;;;16.57;34.37;101861.59;4952899;29;20090;-69
2022/04/07 03:22:30;;;;;;;2.78;1.02;;;;;;;16.49;34.62;101859.69;4953145;29;20051;-68
2022/04/07 03:24:58;;;;;;;4.32;1.33;;;;;;;16.44;35.00;101879.59;4952121;29;20098;-69
2022/04/07 03:27:27;;;;;;;3.03;1.02;;;;;;;16.40;34.68;101869.94;4952929;28;20083;-69
2022/04/07 03:29:55;;;;;;;1.58;0.70;;;;;;;16.35;34.87;101866.31;4952680;29;20497;-69
2022/04/07 03:32:23;;;;;;;2.15;0.75;;;;;;;16.30;34.17;101867.94;4952398;29;20080;-70
2022/04/07 03:34:52;;;;;;;2.45;0.95;;;;;;;16.26;34.01;101866.09;4952202;29;20047;-69
2022/04/07 03:37:20;;;;;;;3.35;1.15;;;;;;;16.21;34.84;101862.50;4952587;28;20047;-69
2022/04/07 03:39:51;;;;;;;4.32;1.27;;;;;;;16.13;34.43;101865.81;4953223;29;20043;-69
2022/04/07 03:42:19;;;;;;;4.60;1.02;;;;;;;16.07;34.97;101870.88;4952704;29;20055;-69
2022/04/07 03:44:47;;;;;;;4.55;0.95;;;;;;;16.01;35.34;101870.75;4952028;28;20156;-69
2022/04/07 03:47:16;;;;;;;2.35;1.00;;;;;;;15.93;35.11;101869.66;4952538;29;20051;-69
2022/04/07 03:49:44;;;;;;;1.95;0.82;;;;;;;15.88;35.48;101879.09;4952214;29;20458;-68
2022/04/07 03:52:15;;;;;;;4.65;1.42;;;;;;;15.77;34.73;101870.97;4953597;29;20059;-69
2022/04/07 03:54:43;;;;;;;1.85;0.75;;;;;;;15.77;34.38;101877.94;4955325;29;20133;-68
2022/04/07 03:57:13;;;;;;;2.65;0.70;;;;;;;15.72;35.05;101882.16;4952840;29;20051;-69
2022/04/07 03:59:42;;;;;;;3.22;0.80;;;;;;;15.66;35.39;101886.31;4952517;29;20043;-69
2022/04/07 04:02:12;;;;;;;2.78;0.73;;;;;;;15.60;35.28;101880.97;4952634;29;20082;-69
2022/04/07 04:04:41;;;;;;;5.85;0.98;;;;;;;15.54;35.68;101878.16;4951194;29;20053;-69
2022/04/07 04:07:09;;;;;;;2.92;0.70;;;;;;;15.50;35.34;101885.03;4951758;29;20545;-69
2022/04/07 04:09:38;;;;;;;3.33;1.05;;;;;;;15.46;35.18;101882.28;4951614;29;20051;-69
2022/04/07 04:12:07;;;;;;;2.30;0.93;;;;;;;15.43;35.04;101887.44;4951662;29;20528;-69
2022/04/07 04:14:37;;;;;;;1.52;0.77;;;;;;;15.37;36.27;101882.03;4951960;29;20509;-70
2022/04/07 04:17:06;;;;;;;3.08;0.85;;;;;;;15.32;35.80;101881.03;4951923;29;20047;-70
2022/04/07 04:19:34;;;;;;;1.63;0.60;;;;;;;15.24;35.83;101865.19;4951881;29;20140;-71
2022/04/07 04:22:03;;;;;;;2.10;0.77;;;;;;;15.22;35.60;101870.34;4951723;29;20055;-70
2022/04/07 04:24:32;;;;;;;1.42;0.75;;;;;;;15.19;35.92;101880.69;4951060;29;20083;-71
2022/04/07 04:27:00;;;;;;;2.40;0.60;;;;;;;15.16;35.40;101872.75;4951952;28;20142;-70
2022/04/07 04:29:29;;;;;;;1.75;0.73;;;;;;;15.13;36.29;101871.81;4951633;29;20477;-70
2022/04/07 04:31:59;;;;;;;2.97;0.90;;;;;;;15.09;36.37;101876.03;4951338;29;20398;-70
2022/04/07 04:34:27;;;;;;;2.75;0.80;;;;;;;15.04;35.84;101875.91;4951007;29;20055;-69
2022/04/07 04:36:56;;;;;;;2.03;0.80;;;;;;;15.02;36.33;101877.59;4951384;28;20110;-69
2022/04/07 04:39:24;;;;;;;2.13;0.77;;;;;;;14.96;36.13;101881.75;4951599;29;20519;-71
2022/04/07 04:41:53;;;;;;;2.55;0.90;;;;;;;14.94;36.95;101880.81;4951455;29;20130;-71
2022/04/07 04:44:21;;;;;;;3.35;0.77;;;;;;;14.90;37.56;101884.16;4951562;29;20106;-71
2022/04/07 04:46:50;;;;;;;4.25;0.93;;;;;;;14.86;36.81;101884.06;4952078;29;20106;-70
2022/04/07 04:49:20;;;;;;;1.73;0.70;;;;;;;14.82;35.94;101879.63;4954277;29;20106;-70
2022/04/07 04:51:48;;;;;;;4.32;0.88;;;;;;;14.83;36.69;101883.97;4951741;29;20439;-70
2022/04/07 04:54:17;;;;;;;1.25;0.60;;;;;;;14.82;36.15;101895.25;4951258;29;20518;-69
2022/04/07 04:56:45;;;;;;;3.28;0.82;;;;;;;14.82;36.29;101890.03;4950361;28;20058;-70
2022/04/07 04:59:14;;;;;;;1.55;0.60;;;;;;;14.79;35.89;101892.53;4951781;29;20059;-69
2022/04/07 05:01:43;;;;;;;3.00;1.10;;;;;;;14.76;36.54;101892.44;4951372;29;20098;-70
2022/04/07 05:04:11;;;;;;;2.72;0.85;;;;;;;14.72;37.23;101890.59;4950664;29;20047;-70
2022/04/07 05:06:41;;;;;;;1.00;0.70;;;;;;;14.68;36.34;101886.09;4951085;29;20099;-70
2022/04/07 05:09:10;;;;;;;1.92;0.68;;;;;;;14.66;36.54;101887.81;4950848;29;20055;-69
2022/04/07 05:11:38;;;;;;;4.65;0.77;;;;;;;14.58;37.12;101878.88;4950708;29;20137;-69
2022/04/07 05:14:06;;;;;;;1.73;0.73;;;;;;;14.60;36.56;101882.41;4950299;29;20043;-70
2022/04/07 05:16:35;;;;;;;1.88;0.52;;;;;;;14.58;36.28;101889.28;4950723;29;20569;-69
2022/04/07 05:19:03;;;;;;;2.17;0.60;;;;;;;14.54;37.14;101875.25;4951296;29;20138;-69
2022/04/07 05:21:32;;;;;;;1.75;0.75;;;;;;;14.53;36.10;101875.22;4950711;29;20047;-70
2022/04/07 05:24:02;;;;;;;3.05;0.82;;;;;;;14.52;36.41;101878.63;4950557;29;20163;-70
2022/04/07 05:26:30;;;;;;;3.92;0.93;;;;;;;14.51;36.03;101876.88;4950730;29;20055;-70
2022/04/07 05:28:59;;;;;;;2.08;0.70;;;;;;;14.46;37.33;101875.00;4950966;28;20055;-70
2022/04/07 05:31:27;;;;;;;2.90;0.95;;;;;;;14.40;37.31;101874.81;4950220;29;20055;-70
2022/04/07 05:33:56;;;;;;;2.67;0.98;;;;;;;14.33;37.08;101878.03;4950326;29;20052;-69
2022/04/07 05:36:26;;;;;;;2.35;0.82;;;;;;;14.29;37.27;101881.38;4950413;28;20053;-69
2022/04/07 05:38:54;;;;;;;1.63;0.68;;;;;;;14.27;37.38;101877.88;4950409;29;20059;-69
2022/04/07 05:41:25;;;;;;;2.45;0.80;;;;;;;14.24;37.03;101875.16;4951030;29;20051;-69
2022/04/07 05:43:53;;;;;;;2.70;0.90;;;;;;;14.21;37.75;101875.06;4952781;29;20085;-69
2022/04/07 05:46:21;;;;;;;1.42;0.60;;;;;;;14.15;38.52;101875.72;4951182;29;20111;-69
2022/04/07 05:48:50;;;;;;;3.60;0.75;;;;;;;14.09;37.16;101864.22;4950443;29;20075;-70
2022/04/07 05:51:18;;;;;;;2.08;0.50;;;;;;;14.09;37.76;101872.03;4950470;29;20125;-69
2022/04/07 05:53:47;;;;;;;2.15;0.73;;;;;;;14.08;39.07;101867.69;4950061;29;20126;-70
2022/04/07 05:56:15;;;;;;;4.28;0.68;;;;;;;14.02;38.76;101871.84;4950339;29;20086;-70
2022/04/07 05:58:45;;;;;;;1.45;0.70;;;;;;;13.98;38.45;101875.19;4950402;29;20490;-69
2022/04/07 06:01:14;;;;;;;2.05;0.60;;;;;;;13.98;36.95;101877.78;4950507;29;20055;-69
2022/04/07 06:03:42;;;;;;;1.60;0.65;;;;;;;13.98;37.97;101875.19;4949910;29;20079;-70
2022/04/07 06:06:10;;;;;;;1.38;0.82;;;;;;;13.97;37.36;101872.53;4949919;29;20039;-70
2022/04/07 06:08:39;;;;;;;3.53;0.55;;;;;;;13.96;39.78;101874.25;4949946;28;20085;-69
2022/04/07 06:11:07;;;;;;;1.27;0.70;;;;;;;13.90;39.04;101871.44;4953719;29;20103;-70
2022/04/07 06:13:38;;;;;;;1.88;0.68;;;;;;;13.81;41.78;101873.72;4953494;29;20133;-70
2022/04/07 06:16:08;;;;;;;1.95;0.45;;;;;;;13.77;39.23;101884.88;4954602;29;20138;-70
2022/04/07 06:18:37;;;;;;;2.60;0.73;;;;;;;13.74;38.39;101883.06;4953809;29;20082;-69
2022/04/07 06:21:05;;;;;;;3.60;0.70;;;;;;;13.72;37.97;101883.81;4954116;29;20204;-69
2022/04/07 06:23:34;;;;;;;3.63;2.00;;;;;;;13.68;39.16;101879.34;4952976;29;20121;-69
2022/04/07 06:26:02;;;;;;;3.92;1.10;;;;;;;13.69;38.42;101882.00;4953635;29;20228;-70
2022/04/07 06:28:31;;;;;;;0.95;0.60;;;;;;;13.67;38.14;101877.56;4953560;28;20055;-70
2022/04/07 06:30:59;;;;;;;1.83;0.77;;;;;;;13.70;37.57;101872.47;4954243;29;20505;-69
2022/04/07 06:33:29;;;;;;;2.05;0.82;;;;;;;13.71;39.96;101879.44;4953681;29;20114;-69
2022/04/07 06:35:58;;;;;;;2.80;1.10;;;;;;;13.62;39.38;101872.22;4954213;28;20106;-69
2022/04/07 06:38:26;;;;;;;3.75;0.95;;;;;;;13.62;38.65;101875.69;4956854;29;20051;-70
2022/04/07 06:40:55;;;;;;;1.88;1.02;;;;;;;13.61;37.70;101878.25;4954736;29;20516;-69
2022/04/07 06:43:23;;;;;;;2.05;0.93;;;;;;;13.59;38.57;101875.59;4953559;29;20051;-69
2022/04/07 06:45:51;;;;;;;1.55;0.68;;;;;;;13.56;38.60;101879.78;4953558;29;20139;-69
2022/04/07 06:48:20;;;;;;;2.88;0.80;;;;;;;13.51;37.86;101882.22;4953368;29;20138;-69
2022/04/07 06:50:50;;;;;;;2.83;0.70;;;;;;;13.52;39.18;101878.81;4952376;29;20062;-68
2022/04/07 06:53:19;;;;;;;4.53;0.85;;;;;;;13.50;39.67;101879.59;4953313;29;20707;-69
2022/04/07 06:55:47;;;;;;;1.27;0.40;;;;;;;13.46;39.73;101875.97;4953242;29;20098;-69
2022/04/07 06:58:15;;;;;;;1.30;0.57;;;;;;;13.43;39.87;101872.41;4953389;29;20087;-69
2022/04/07 07:00:45;;;;;;;1.75;0.55;;;;;;;13.45;41.18;101875.94;4953274;29;20055;-69
2022/04/07 07:03:16;;;;;;;2.13;0.60;;;;;;;13.41;37.67;101864.53;4953218;29;20102;-69
2022/04/07 07:05:45;;;;;;;1.48;0.52;;;;;;;13.45;36.98;101865.56;4952974;29;20683;-70
2022/04/07 07:08:17;;;;;;;1.77;0.70;;;;;;;13.48;36.82;101861.31;4952943;29;20086;-70
2022/04/07 07:10:47;;;;;;;2.13;0.77;;;;;;;13.50;37.23;101869.19;4953376;29;20067;-68
2022/04/07 07:13:16;;;;;;;1.92;0.75;;;;;;;13.49;37.69;101870.91;4952426;29;20047;-68
2022/04/07 07:15:45;;;;;;;1.13;0.55;;;;;;;13.50;38.63;101864.88;4953316;29;20549;-68
2022/04/07 07:18:13;;;;;;;1.33;0.63;;;;;;;13.45;38.18;101869.03;4953279;29;20541;-69
2022/04/07 07:20:42;;;;;;;2.65;0.70;;;;;;;13.34;37.87;101853.03;4952351;28;20055;-69
2022/04/07 07:23:10;;;;;;;1.05;0.55;;;;;;;13.36;37.93;101866.09;4952925;29;20565;-69
2022/04/07 07:25:41;;;;;;;1.88;0.70;;;;;;;13.34;38.28;101862.56;4952483;29;20161;-70
2022/04/07 07:28:10;;;;;;;1.17;0.82;;;;;;;13.30;38.56;101858.94;4953400;28;20110;-69
2022/04/07 07:30:38;;;;;;;6.45;0.60;;;;;;;13.30;38.18;101864.16;4953144;29;20135;-69
2022/04/07 07:33:08;;;;;;;1.90;0.75;;;;;;;13.29;37.41;101864.13;4955703;29;20098;-69
2022/04/07 07:35:36;;;;;;;2.10;0.60;;;;;;;13.28;37.54;101868.41;4953489;28;20147;-69
2022/04/07 07:38:05;;;;;;;1.40;0.70;;;;;;;13.25;37.62;101857.00;4952863;29;20082;-69
2022/04/07 07:40:34;;;;;;;3.03;0.65;;;;;;;13.24;39.98;101858.72;4953102;29;20047;-69
2022/04/07 07:43:04;;;;;;;4.25;0.85;;;;;;;13.19;38.74;101860.25;4952601;29;20583;-69
2022/04/07 07:45:35;;;;;;;1.70;0.70;;;;;;;13.14;39.66;101870.47;4952809;29;20074;-69
2022/04/07 07:48:03;;;;;;;1.55;0.77;;;;;;;13.07;38.30;101860.69;4952043;29;20556;-69
2022/04/07 07:50:32;;;;;;;1.60;0.73;;;;;;;13.06;38.29;101871.03;4952926;29;20114;-69
2022/04/07 07:53:00;;;;;;;3.88;0.57;;;;;;;13.06;37.62;101865.84;4952179;29;20509;-68
2022/04/07 07:55:29;;;;;;;1.23;0.63;;;;;;;13.04;37.39;101868.38;4952087;29;20099;-68
2022/04/07 07:57:57;;;;;;;1.55;0.40;;;;;;;13.04;38.08;101857.97;4952080;29;20052;-69
2022/04/07 08:00:27;;;;;;;3.33;0.90;;;;;;;13.01;37.93;101870.88;4952445;29;20387;-70
2022/04/07 08:02:56;;;;;;;2.17;0.57;;;;;;;12.95;40.08;101861.13;4952045;29;20557;-69
2022/04/07 08:05:24;;;;;;;2.58;1.48;;;;;;;12.91;38.89;101856.63;4951691;29;20528;-70
2022/04/07 08:07:53;;;;;;;1.88;0.60;;;;;;;12.90;38.99;101864.38;4951901;29;20110;-69
2022/04/07 08:10:22;;;;;;;3.58;0.70;;;;;;;12.88;37.72;101863.44;4951887;29;20062;-70
2022/04/07 08:12:50;;;;;;;4.80;0.60;;;;;;;12.84;37.56;101865.03;4951535;29;20082;-69
2022/04/07 08:15:19;;;;;;;2.42;1.02;;;;;;;12.84;37.18;101864.13;4952258;29;20126;-70
2022/04/07 08:17:49;;;;;;;3.78;0.90;;;;;;;12.82;37.66;101868.38;4951576;29;20478;-70
2022/04/07 08:20:18;;;;;;;1.48;0.85;;;;;;;12.79;36.78;101867.44;4951698;29;20083;-70
2022/04/07 08:22:46;;;;;;;3.20;0.70;;;;;;;12.80;37.82;101870.91;4951421;29;20382;-70
2022/04/07 08:25:14;;;;;;;1.60;0.73;;;;;;;12.75;37.64;101870.75;4951806;29;20055;-70
2022/04/07 08:27:43;;;;;;;4.20;0.80;;;;;;;12.69;37.53;101865.34;4954554;28;20062;-70
2022/04/07 08:30:13;;;;;;;3.40;0.93;;;;;;;12.65;39.05;101862.56;4952615;29;20184;-70
2022/04/07 08:32:41;;;;;;;4.03;1.00;;;;;;;12.61;39.14;101864.13;4950878;28;20154;-70
2022/04/07 08:35:11;;;;;;;1.10;0.47;;;;;;;12.56;40.14;101863.06;4951759;28;20556;-70
2022/04/07 08:37:40;;;;;;;2.50;0.80;;;;;;;12.53;38.97;101868.16;4951661;29;20111;-70
2022/04/07 08:40:19;;;;;;;5.55;1.75;;;;;;;12.49;38.41;101869.75;4951974;29;20051;-70
2022/04/07 08:42:48;;;;;;;1.92;0.80;;;;;;;12.46;38.34;101868.72;4951618;29;20086;-70
2022/04/07 08:45:16;;;;;;;1.75;0.85;;;;;;;12.44;39.33;101862.56;4951258;29;20043;-69
2022/04/07 08:47:49;;;;;;;3.10;0.73;;;;;;;12.40;40.56;101860.72;4951146;29;20294;-70
2022/04/07 08:50:24;;;;;;;4.40;0.70;;;;;;;12.29;40.19;101852.50;4951838;29;20047;-71
2022/04/07 08:52:54;;;;;;;2.63;0.88;;;;;;;12.28;39.95;101854.22;4951039;29;20416;-71
2022/04/07 08:55:23;;;;;;;1.05;0.50;;;;;;;12.19;42.65;101855.56;4950889;29;20071;-70
2022/04/07 08:57:51;;;;;;;1.27;0.60;;;;;;;12.13;43.36;101858.75;4951038;29;20047;-70
2022/04/07 09:00:20;;;;;;;3.05;0.55;;;;;;;12.07;42.16;101864.59;4951476;29;20109;-70
2022/04/07 09:02:48;;;;;;;1.15;0.50;;;;;;;12.03;41.67;101864.41;4950818;29;20075;-69
2022/04/07 09:05:23;;;;;;;2.47;0.70;;;;;;;12.01;41.23;101863.47;4950922;29;20540;-69
2022/04/07 09:07:53;;;;;;;3.13;0.93;;;;;;;12.02;40.00;101852.25;4931192;29;20074;-69
2022/04/07 09:10:22;;;;;;;1.70;0.57;;;;;;;12.01;41.14;101850.50;4931412;29;20138;-69
2022/04/07 09:12:52;;;;;;;1.92;0.77;;;;;;;11.97;40.75;101856.38;4937635;29;20059;-69
2022/04/07 09:15:30;;;;;;;5.93;1.05;;;;;;;11.92;41.48;101849.28;4932415;29;20506;-69
2022/04/07 09:18:00;;;;;;;2.05;0.50;;;;;;;11.89;41.56;101856.94;4931314;29;20168;-69
2022/04/07 09:20:30;;;;;;;4.85;0.80;;;;;;;11.86;41.08;101856.75;4931985;29;20478;-69
2022/04/07 09:23:01;;;;;;;1.35;0.55;;;;;;;11.85;41.63;101852.41;4933926;29;20103;-70
2022/04/07 09:25:29;;;;;;;1.05;0.60;;;;;;;11.78;41.08;101858.16;4941042;29;20087;-69
2022/04/07 09:28:04;;;;;;;2.35;0.73;;;;;;;11.70;41.19;101854.34;4951245;28;20089;-70
2022/04/07 09:30:41;;;;;;;3.70;0.65;;;;;;;11.69;41.04;101860.38;4950561;29;20121;-70
2022/04/07 09:33:22;;;;;;;0.88;0.57;;;;;;;11.66;40.74;101855.94;4950785;29;20058;-70
2022/04/07 09:36:03;;;;;;;4.28;0.80;;;;;;;11.62;41.77;101858.34;4950562;28;20510;-70
2022/04/07 09:38:32;;;;;;;1.73;0.73;;;;;;;11.56;41.36;101856.34;4950858;29;20043;-70
2022/04/07 09:41:09;;;;;;;2.60;0.63;;;;;;;11.52;42.74;101855.34;4949946;29;20169;-70
2022/04/07 09:43:45;;;;;;;4.07;0.80;;;;;;;11.45;44.60;101862.78;4950304;28;20058;-70
2022/04/07 09:46:15;;;;;;;0.85;0.40;;;;;;;11.35;43.13;101848.53;4950853;29;20114;-70
2022/04/07 09:49:00;;;;;;;0.95;0.52;;;;;;;11.28;43.39;101838.72;4950539;29;20106;-70
2022/04/07 09:51:31;;;;;;;4.32;1.20;;;;;;;11.28;42.31;101844.78;4950755;29;20051;-70
2022/04/07 09:54:00;;;;;;;2.10;0.50;;;;;;;11.26;43.09;101855.91;4950244;29;20055;-69
2022/04/07 09:56:30;;;;;;;1.88;0.80;;;;;;;11.22;43.24;101843.63;4950280;29;20051;-70
2022/04/07 09:58:58;;;;;;;1.35;0.70;;;;;;;11.15;43.27;101834.69;4950399;29;20094;-70
2022/04/07 10:01:26;;;;;;;3.47;0.70;;;;;;;11.16;45.13;101848.56;4950190;29;20505;-70
2022/04/07 10:03:55;;;;;;;5.32;0.80;;;;;;;11.13;44.06;101843.22;4949699;29;20058;-69
2022/04/07 10:06:24;;;;;;;3.05;0.65;;;;;;;11.08;44.32;101838.72;4950370;29;20694;-70
2022/04/07 10:08:54;;;;;;;2.28;0.50;;;;;;;11.06;45.24;101845.56;4949776;29;20053;-69
2022/04/07 10:11:23;;;;;;;1.67;0.63;;;;;;;11.03;44.23;101848.00;4950308;29;20047;-70
2022/04/07 10:13:52;;;;;;;2.22;0.73;;;;;;;10.98;44.39;101839.13;4949713;29;20051;-69
2022/04/07 10:16:27;;;;;;;2.85;0.77;;;;;;;10.93;44.42;101840.63;4950029;29;20047;-69
2022/04/07 10:18:59;;;;;;;4.75;0.70;;;;;;;10.92;44.79;101833.66;4950569;29;20114;-69
2022/04/07 10:21:45;;;;;;;1.25;0.70;;;;;;;10.81;46.14;101819.34;4950465;29;20116;-70
2022/04/07 10:24:33;;;;;;;1.63;0.77;;;;;;;10.77;47.62;101825.22;4949953;29;20070;-70
2022/04/07 10:27:03;;;;;;;1.17;0.57;;;;;;;10.74;46.89;101822.47;4930613;29;20107;-70
2022/04/07 10:29:32;;;;;;;1.45;0.43;;;;;;;10.66;47.36;101817.84;4931474;28;20578;-69
2022/04/07 10:32:22;;;;;;;1.88;0.57;;;;;;;10.66;45.67;101820.44;4930914;29;20506;-69
2022/04/07 10:35:00;;;;;;;4.13;0.82;;;;;;;10.66;44.64;101815.25;4930877;29;20228;-70
2022/04/07 10:37:33;;;;;;;1.10;0.70;;;;;;;10.66;45.48;101815.25;4930956;29;20051;-70
2022/04/07 10:40:18;;;;;;;;;;;;;;;10.67;44.34;101813.53;4931757;29;20102;-69
2022/04/07 10:43:18;;;;;;;2.22;0.75;;;;;;;10.65;45.55;101816.09;4930162;29;20393;-70
2022/04/07 10:45:48;;;;;;;3.28;0.70;;;;;;;10.62;46.18;101812.44;4931036;29;20056;-69
2022/04/07 10:48:35;;;;;;;0.90;0.80;;;;;;;10.58;46.40;101810.53;4930533;29;20079;-69
2022/04/07 10:51:04;;;;;;;2.10;0.80;;;;;;;10.55;48.41;101806.09;4930607;29;20048;-69
2022/04/07 10:53:34;;;;;;;1.90;0.60;;;;;;;10.49;46.96;101805.84;4934443;29;20051;-69
2022/04/07 10:56:10;;;;;;;4.00;1.00;;;;;;;10.45;47.42;101807.38;4951515;28;20055;-70
2022/04/07 10:58:52;;;;;;;2.85;0.73;;;;;;;10.43;46.55;101808.13;4953271;29;20058;-70
2022/04/07 11:01:56;;;;;;;2.33;0.70;;;;;;;10.37;45.51;101810.41;4953563;29;20141;-70
2022/04/07 11:04:44;;;;;;;1.38;0.70;;;;;;;10.30;45.75;101808.34;4952965;29;20145;-70
2022/04/07 11:07:17;;;;;;;1.55;0.68;;;;;;;10.29;47.41;101802.31;4953064;29;20134;-69
2022/04/07 11:09:52;;;;;;;1.20;0.70;;;;;;;10.27;47.25;101812.53;4952749;29;20062;-70
2022/04/07 11:12:22;;;;;;;1.30;0.95;;;;;;;10.28;45.24;101816.00;4952157;29;20059;-69
2022/04/07 11:14:54;;;;;;;1.20;0.50;;;;;;;10.22;44.46;101803.69;4955105;29;20050;-68
2022/04/07 11:17:32;;;;;;;1.63;0.80;;;;;;;10.29;45.39;101820.41;4954326;29;20516;-69
2022/04/07 11:20:07;;;;;;;2.17;0.60;;;;;;;10.30;47.23;101824.75;4948457;29;20052;-70
2022/04/07 11:22:49;;;;;;;2.17;0.68;;;;;;;10.30;46.33;101822.16;4951066;29;20496;-69
2022/04/07 11:25:21;;;;;;;1.87;1.00;;;;;;;10.31;46.77;101825.63;4953207;29;20054;-68
2022/04/07 11:28:10;;;;;;;1.88;1.00;;;;;;;10.34;46.59;101828.38;4952845;28;20055;-69
2022/04/07 11:30:43;;;;;;;2.30;0.90;;;;;;;10.31;49.64;101825.63;4952914;29;20126;-69
2022/04/07 11:33:29;;;;;;;2.47;0.85;;;;;;;10.29;47.54;101827.28;4952637;29;20051;-68
2022/04/07 11:36:34;;;;;;;3.88;0.82;;;;;;;10.29;47.34;101833.34;4952708;28;20119;-69
2022/04/07 11:39:03;;;;;;;5.95;1.00;;;;;;;10.17;47.93;101812.91;4952476;29;20090;-70
2022/04/07 11:41:41;;;;;;;2.65;0.90;;;;;;;10.27;48.07;101827.19;4952743;29;20666;-69